Terminal Aerodrome Forecast
Issued by NWS Sioux Falls, SD

Home | Current Version | Previous Version | Graphics & Text | Print | Product List | Glossary On
Versions: 1 2 3 4 5 6 7 8 9 10 11 12 13 14 15 16 17 18 19 20 21 22 23 24 25 26
159
FTUS43 KFSD 152320
TAFSUX
TAF
KSUX 152320Z 1600/1624 33020G30KT P6SM BKN030
     FM160300 33017KT P6SM BKN030
     FM160500 33016KT P6SM -SN BKN030
     FM161000 33014KT P6SM BKN030
     FM161500 33010KT P6SM SCT030=

USA.gov is the U.S. government's official web portal to all federal, state and local government web resources and services.